地図

経路データ

SID SEASON NUMBER BASIN SUBBASIN NAME ISO_TIME NATURE LAT LON WMO_WIND WMO_PRES WMO_AGENCY TRACK_TYPE DIST2LAND LANDFALL IFLAG USA_AGENCY USA_ATCF_ID USA_LAT USA_LON USA_RECORD USA_STATUS USA_WIND USA_PRES USA_SSHS USA_R34_NE USA_R34_SE USA_R34_SW USA_R34_NW USA_R50_NE USA_R50_SE USA_R50_SW USA_R50_NW USA_R64_NE USA_R64_SE USA_R64_SW USA_R64_NW USA_POCI USA_ROCI USA_RMW USA_EYE TOKYO_LAT TOKYO_LON TOKYO_GRADE TOKYO_WIND TOKYO_PRES TOKYO_R50_DIR TOKYO_R50_LONG TOKYO_R50_SHORT TOKYO_R30_DIR TOKYO_R30_LONG TOKYO_R30_SHORT TOKYO_LAND CMA_LAT CMA_LON CMA_CAT CMA_WIND CMA_PRES HKO_LAT HKO_LON HKO_CAT HKO_WIND HKO_PRES NEWDELHI_LAT NEWDELHI_LON NEWDELHI_GRADE NEWDELHI_WIND NEWDELHI_PRES NEWDELHI_CI NEWDELHI_DP NEWDELHI_POCI REUNION_LAT REUNION_LON REUNION_TYPE REUNION_WIND REUNION_PRES REUNION_TNUM REUNION_CI REUNION_RMW REUNION_R34_NE REUNION_R34_SE REUNION_R34_SW REUNION_R34_NW REUNION_R50_NE REUNION_R50_SE REUNION_R50_SW REUNION_R50_NW REUNION_R64_NE REUNION_R64_SE REUNION_R64_SW REUNION_R64_NW BOM_LAT BOM_LON BOM_TYPE BOM_WIND BOM_PRES BOM_TNUM BOM_CI BOM_RMW BOM_R34_NE BOM_R34_SE BOM_R34_SW BOM_R34_NW BOM_R50_NE BOM_R50_SE BOM_R50_SW BOM_R50_NW BOM_R64_NE BOM_R64_SE BOM_R64_SW BOM_R64_NW BOM_ROCI BOM_POCI BOM_EYE BOM_POS_METHOD BOM_PRES_METHOD NADI_LAT NADI_LON NADI_CAT NADI_WIND NADI_PRES WELLINGTON_LAT WELLINGTON_LON WELLINGTON_WIND WELLINGTON_PRES DS824_LAT DS824_LON DS824_STAGE DS824_WIND DS824_PRES TD9636_LAT TD9636_LON TD9636_STAGE TD9636_WIND TD9636_PRES TD9635_LAT TD9635_LON TD9635_WIND TD9635_PRES TD9635_ROCI NEUMANN_LAT NEUMANN_LON NEUMANN_CLASS NEUMANN_WIND NEUMANN_PRES MLC_LAT MLC_LON MLC_CLASS MLC_WIND MLC_PRES USA_GUST BOM_GUST BOM_GUST_PER REUNION_GUST REUNION_GUST_PER USA_SEAHGT USA_SEARAD_NE USA_SEARAD_SE USA_SEARAD_SW USA_SEARAD_NW STORM_SPEED STORM_DIR
1981056S14141 1981 16 SP EA FREDA 1981-02-24 18:00:00 NR -14.4000 140.600 30 998 bom main 97 34 ______O_______ -1 -14.4000 140.600 20 30 998 2.50000 45 45 12 90
1981056S14141 1981 16 SP EA FREDA 1981-02-24 21:00:00 NR -14.4000 141.200 30 998 bom main 34 0 ______O_______ -1 -14.4000 141.200 20 30 998 2.50000 45 45 10 90
1981056S14141 1981 16 SP EA FREDA 1981-02-25 00:00:00 NR -14.4000 141.600 30 996 bom main 0 0 ______O_______ -1 -14.4000 141.600 20 30 996 2.50000 45 45 10 96
1981056S14141 1981 16 SP EA FREDA 1981-02-25 03:00:00 NR -14.5000 142.200 30 996 bom main 0 0 ______O_______ -1 -14.5000 142.200 20 30 996 45 45 11 101
1981056S14141 1981 16 SP EA FREDA 1981-02-25 06:00:00 NR -14.6000 142.700 30 996 bom main 0 0 ______O_______ -1 -14.6000 142.700 20 30 996 45 45 8 104
1981056S14141 1981 16 SP EA FREDA 1981-02-25 09:00:00 NR -14.7000 143.000 30 996 bom main 0 0 ______O_______ -1 -14.7000 143.000 20 30 996 45 45 7 106
1981056S14141 1981 16 SP EA FREDA 1981-02-25 12:00:00 NR -14.8000 143.400 30 996 bom main 0 0 ______O_______ -1 -14.8000 143.400 20 30 996 45 45 8 104
1981056S14141 1981 16 SP EA FREDA 1981-02-25 15:00:00 NR -14.9000 143.800 30 996 bom main 0 0 ______O_______ -1 -14.9000 143.800 20 30 996 45 45 11 103
1981056S14141 1981 16 SP EA FREDA 1981-02-25 18:00:00 TS -15.0571 144.543 30 994 bom main 0 0 O_____O___O_O_ jtwc_sh SH201981 -15.0000 145.000 25 -1 -15.1000 144.200 20 30 994 -15.0000 145.000 1 25 -15.0000 145.000 TC 25 45 45 11 102
1981056S14141 1981 16 SP EA FREDA 1981-02-25 21:00:00 TS -15.1367 144.924 30 996 bom main 0 0 P_____O___P_P_ SH201981 -15.0825 145.118 25 -1 -15.2000 144.600 20 30 996 -15.1186 145.184 1 26 -15.0825 145.118 TC 25 45 45 7 108
1981056S14141 1981 16 SP EA FREDA 1981-02-26 00:00:00 TS -15.2607 145.185 30 996 bom main 0 0 O_____O_O_P_O_ jtwc_sh SH201981 -15.2000 145.300 25 -1 -15.3000 145.000 20 30 996 -15.5000 144.600 35 995 -15.2498 145.395 1 27 -15.2000 145.300 TC 25 45 45 7 116
1981056S14141 1981 16 SP EA FREDA 1981-02-26 03:00:00 TS -15.4470 145.574 30 996 bom main 24 24 P_____O_P_P_P_ SH201981 -15.3774 145.598 27 -1 -15.5000 145.600 20 30 996 2.50000 -15.7012 145.264 37 993 -15.4061 145.658 1 28 -15.3774 145.598 TC 27 45 45 9 115
1981056S14141 1981 16 SP EA FREDA 1981-02-26 06:00:00 TS -15.6491 146.052 40 992 bom main 82 78 O_____O_P_O_O_ jtwc_sh SH201981 -15.6000 146.000 30 -1 -15.6000 146.300 30 40 992 3.00000 -15.9112 145.932 40 991 -15.6000 146.000 1 30 -15.6000 146.000 TC 30 55 55 11 113
1981056S14141 1981 16 SP EA FREDA 1981-02-26 09:00:00 TS -15.8672 146.595 40 992 bom main 119 119 P_____O_P_P_P_ SH201981 -15.8274 146.463 32 -1 -15.7000 147.000 30 40 992 3.00000 -16.1406 146.610 42 989 -15.8406 146.440 1 32 -15.8274 146.463 TC 32 55 55 12 115
1981056S14141 1981 16 SP EA FREDA 1981-02-26 12:00:00 TS -16.1450 147.173 40 992 bom main 171 164 O_____O_O_P_O_ jtwc_sh SH201981 -16.1000 147.000 35 0 -16.0000 147.600 30 40 992 3.00000 -16.4000 147.300 45 987 -16.1248 146.966 1 35 -16.1000 147.000 TC 35 55 55 13 118
1981056S14141 1981 16 SP EA FREDA 1981-02-26 15:00:00 TS -16.4595 147.758 45 990 bom main 207 207 P_____O_P_P_P_ SH201981 -16.4272 147.563 37 0 -16.3000 148.100 30 45 990 3.00000 -16.6962 148.003 46 986 -16.4466 147.559 1 37 -16.4272 147.563 TC 37 64 64 14 120
1981056S14141 1981 16 SP EA FREDA 1981-02-26 18:00:00 TS -16.8240 148.420 45 988 bom main 253 253 O_____O_P_O_O_ jtwc_sh SH201981 -16.8000 148.200 40 0 -16.7000 148.800 30 45 988 3.00000 -17.0201 148.702 47 986 -16.8000 148.200 2 40 -16.8000 148.200 TC 40 64 64 15 119
1981056S14141 1981 16 SP EA FREDA 1981-02-26 21:00:00 TS -17.1649 149.112 45 988 bom main 304 304 P_____O_P_P_P_ SH201981 -17.1926 148.943 42 0 -16.9000 149.400 30 45 988 3.00000 -17.3588 149.375 48 985 -17.1803 148.901 2 42 -17.1926 148.943 TC 42 64 64 15 118
1981056S14141 1981 16 SP EA FREDA 1981-02-27 00:00:00 TS -17.5373 149.807 50 986 bom main 321 311 O_____O_O_P_O_ jtwc_sh SH201981 -17.6000 149.700 45 0 -17.2000 150.000 30 50 986 3.50000 -17.7000 150.000 50 985 -17.5864 149.636 2 45 -17.6000 149.700 TC 45 69 69 15 121
1981056S14141 1981 16 SP EA FREDA 1981-02-27 03:00:00 TS -17.9419 150.463 50 984 bom main 322 310 P_____O_P_P_P_ SH201981 -18.0074 150.395 47 0 -17.7000 150.600 30 50 984 3.50000 -17.9958 150.572 52 982 -17.9992 150.354 2 47 -18.0074 150.395 TC 47 69 69 14 125
1981056S14141 1981 16 SP EA FREDA 1981-02-27 06:00:00 TS -18.3593 151.038 55 982 bom main 313 313 O_____O_P_O_O_ jtwc_sh SH201981 -18.4000 151.000 50 0 -18.3000 151.100 30 55 982 4.00000 -18.2966 151.092 55 980 -18.4000 151.000 2 50 -18.4000 151.000 TC 50 75 75 13 128
1981056S14141 1981 16 SP EA FREDA 1981-02-27 09:00:00 TS -18.7603 151.571 55 982 bom main 337 337 P_____O_P_P_P_ SH201981 -18.7572 151.488 52 0 -18.9000 151.800 30 55 982 4.00000 -18.6241 151.566 57 977 -18.7630 151.514 2 51 -18.7572 151.488 TC 52 75 75 12 131
1981056S14141 1981 16 SP EA FREDA 1981-02-27 12:00:00 TS -19.1227 151.970 55 982 bom main 360 355 O_____O_O_P_O_ jtwc_sh SH201981 -19.1000 151.900 55 0 -19.3000 152.100 30 55 982 4.00000 -19.0000 152.000 60 975 -19.1134 151.949 2 52 -19.1000 151.900 TC 55 75 75 11 134
1981056S14141 1981 16 SP EA FREDA 1981-02-27 15:00:00 TS -19.5093 152.394 55 980 bom main 369 348 P_____O_P_P_P_ SH201981 -19.4499 152.308 55 0 -19.7000 152.600 30 55 980 4.00000 -19.4897 152.419 61 973 -19.4571 152.335 2 53 -19.4499 152.308 TC 55 75 75 11 136
1981056S14141 1981 16 SP EA FREDA 1981-02-27 18:00:00 TS -19.8844 152.740 60 978 bom main 348 342 O_____O_P_O_O_ jtwc_sh SH201981 -19.8000 152.700 55 0 -20.0000 152.800 30 60 978 4.00000 -20.0218 152.802 62 972 -19.8000 152.700 2 55 -19.8000 152.700 TC 55 84 84 10 138
1981056S14141 1981 16 SP EA FREDA 1981-02-27 21:00:00 TS -20.2602 153.116 60 978 bom main 341 341 P_____O_P_P_P_ SH201981 -20.1500 153.108 55 0 -20.3000 153.100 30 60 978 4.00000 -20.5430 153.159 63 971 -20.1579 153.106 2 56 -20.1500 153.108 TC 55 84 84 10 137
1981056S14141 1981 16 SP EA FREDA 1981-02-28 00:00:00 TS -20.6430 153.499 60 978 bom main 350 344 O_____O_O_P_O_ jtwc_sh SH201981 -20.5000 153.500 55 0 -20.7000 153.500 30 60 978 4.00000 -21.0000 153.500 65 970 -20.5148 153.495 2 57 -20.5000 153.500 TC 55 84 84 10 138
1981056S14141 1981 16 SP EA FREDA 1981-02-28 03:00:00 TS -20.9879 153.813 70 974 bom main 352 352 P_____O_P_P_P_ SH201981 -20.8568 153.791 57 0 -21.0000 153.800 40 70 974 4.50000 -21.3619 153.824 65 970 -20.8643 153.862 2 58 -20.8568 153.791 TC 57 99 99 9 135
1981056S14141 1981 16 SP EA FREDA 1981-02-28 06:00:00 TS -21.2898 154.187 70 974 bom main 375 375 O_____O_P_O_O_ jtwc_sh SH201981 -21.2000 154.200 60 0 -21.2000 154.200 40 70 974 4.50000 -21.6491 154.136 65 970 -21.2000 154.200 2 60 -21.2000 154.200 TC 60 99 99 10 123
1981056S14141 1981 16 SP EA FREDA 1981-02-28 09:00:00 TS -21.5350 154.735 70 972 bom main 395 387 P_____O_P_P_P_ SH201981 -21.5231 154.947 57 0 -21.2000 154.800 40 70 972 4.50000 -21.8618 154.455 65 970 -21.5669 154.524 2 57 -21.5231 154.947 TC 57 99 99 11 115
1981056S14141 1981 16 SP EA FREDA 1981-02-28 12:00:00 TS -21.7624 155.283 65 976 bom main 392 392 O_____O_O_P_O_ jtwc_sh SH201981 -21.8000 155.800 55 0 -21.3000 155.200 40 65 976 4.50000 -22.0000 154.800 65 970 -21.9122 154.817 2 55 -21.8000 155.800 TC 55 89 89 11 113
1981056S14141 1981 16 SP EA FREDA 1981-02-28 15:00:00 TS -21.9686 155.832 60 978 bom main 403 403 P_____O_P_P_P_ SH201981 -22.0304 156.665 52 0 -21.5000 155.500 30 60 978 4.00000 -22.0808 155.254 60 974 -22.2014 155.077 2 52 -22.0304 156.665 TC 52 84 84 10 111
1981056S14141 1981 16 SP EA FREDA 1981-02-28 18:00:00 TS -22.0982 156.245 60 980 bom main 422 421 O_____O_P_O_O_ jtwc_sh SH201981 -22.2000 157.200 50 0 -21.6000 155.800 30 60 980 4.00000 -22.0911 155.726 55 978 -22.4000 155.300 2 50 -22.2000 157.200 TC 50 84 84 5 117
1981056S14141 1981 16 SP EA FREDA 1981-02-28 21:00:00 TS -22.2070 156.333 55 982 bom main 421 414 P_____O_P_P_P_ SH201981 -22.3372 157.058 50 0 -21.8000 155.900 30 55 982 4.00000 -22.0558 156.160 50 982 -22.5047 155.491 2 48 -22.3372 157.058 TC 50 75 75 2 169
1981056S14141 1981 16 SP EA FREDA 1981-03-01 00:00:00 TS -22.2629 156.289 55 982 bom main 414 406 O_____O_O_P_O_ jtwc_sh SH201981 -22.4000 156.600 50 0 -22.0000 156.100 30 55 982 4.00000 -22.0000 156.500 45 987 -22.5147 155.646 2 47 -22.4000 156.600 TC 50 75 75 1 238
1981056S14141 1981 16 SP EA FREDA 1981-03-01 03:00:00 TS -22.2831 156.207 50 984 bom main 406 406 P_____O_P_P_P_ SH201981 -22.4027 156.190 47 0 -22.2000 156.200 30 50 984 3.50000 -21.9678 156.680 45 987 -22.4423 155.778 2 46 -22.4027 156.190 TC 47 69 69 1 290
1981056S14141 1981 16 SP EA FREDA 1981-03-01 06:00:00 TS -22.2243 156.172 50 984 bom main 414 414 O_____O_P_O_O_ jtwc_sh SH201981 -22.3000 155.900 45 0 -22.3000 156.400 30 50 984 3.50000 -21.9217 156.762 45 987 -22.3000 155.900 2 45 -22.3000 155.900 TC 45 69 69 2 15
1981056S14141 1981 16 SP EA FREDA 1981-03-01 09:00:00 TS -22.0638 156.274 50 984 bom main 429 429 P_____O_P_P_P_ SH201981 -22.0799 155.925 45 0 -22.2000 156.700 30 50 984 3.50000 -21.8649 156.789 45 987 -22.0943 156.032 2 43 -22.0799 155.925 TC 45 69 69 4 34
1981056S14141 1981 16 SP EA FREDA 1981-03-01 12:00:00 TS -21.8660 156.432 50 986 bom main 452 452 O_____O_O_P_O_ jtwc_sh SH201981 -21.8000 156.100 45 0 -22.1000 157.000 30 50 986 3.50000 -21.8000 156.800 45 987 -21.8299 156.158 2 42 -21.8000 156.100 TC 45 69 69 5 33
1981056S14141 1981 16 SP EA FREDA 1981-03-01 15:00:00 TS -21.6548 156.562 50 986 bom main 483 483 P_____O_P_P_P_ SH201981 -21.5275 156.250 42 0 -21.9000 157.200 30 50 986 3.50000 -21.7686 156.832 45 987 -21.5506 156.279 2 41 -21.5275 156.250 TC 42 69 69 5 30
1981056S14141 1981 16 SP EA FREDA 1981-03-01 18:00:00 TS -21.4450 156.692 50 986 bom main 514 514 O_____O_P_O_O_ jtwc_sh SH201981 -21.3000 156.400 40 0 -21.6000 157.400 30 50 986 3.50000 -21.7248 156.862 45 987 -21.3000 156.400 2 40 -21.3000 156.400 TC 40 69 69 4 31
1981056S14141 1981 16 SP EA FREDA 1981-03-01 21:00:00 TS -21.3105 156.786 50 988 bom main 530 530 P_____O_P_P_P_ SH201981 -21.1850 156.500 40 0 -21.4000 157.500 30 50 988 3.50000 -21.6436 156.910 45 987 -21.1390 156.521 2 40 -21.1850 156.500 TC 40 69 69 4 31
1981056S14141 1981 16 SP EA FREDA 1981-03-02 00:00:00 TS -21.1425 156.888 50 988 bom main 553 553 O_____O_O_P_O_ jtwc_sh SH201981 -21.1000 156.600 40 0 -21.0000 157.600 30 50 988 3.50000 -21.5000 157.000 45 987 -21.0124 156.642 2 40 -21.1000 156.600 TC 40 69 69 4 33
1981056S14141 1981 16 SP EA FREDA 1981-03-02 03:00:00 TS -20.9747 157.022 50 988 bom main 569 569 P_____O_P_P_P_ SH201981 -20.9500 156.750 40 0 -20.8000 157.700 30 50 988 3.50000 -21.2687 157.141 46 986 -20.9046 156.768 2 40 -20.9500 156.750 TC 40 69 69 5 36
1981056S14141 1981 16 SP EA FREDA 1981-03-02 06:00:00 TS -20.7550 157.185 50 986 bom main 599 599 O_____O_P_O_O_ jtwc_sh SH201981 -20.8000 156.900 40 0 -20.4000 157.900 30 50 986 3.50000 -20.9749 157.325 47 986 -20.8000 156.900 2 40 -20.8000 156.900 TC 40 69 69 5 36
1981056S14141 1981 16 SP EA FREDA 1981-03-02 09:00:00 TS -20.5702 157.330 45 990 bom main 623 623 P_____O_P_P_P_ SH201981 -20.6999 156.992 40 0 -20.1000 158.100 30 45 990 3.00000 -20.6436 157.547 48 985 -20.7073 157.018 2 41 -20.6999 156.992 TC 40 64 64 5 37
1981056S14141 1981 16 SP EA FREDA 1981-03-02 12:00:00 TS -20.3819 157.489 45 990 bom main 653 653 O_____O_O_P_O_ jtwc_sh SH201981 -20.6000 157.100 40 0 -19.8000 158.300 30 45 990 3.00000 -20.3000 157.800 50 985 -20.6096 157.147 2 42 -20.6000 157.100 TC 40 64 64 5 42
1981056S14141 1981 16 SP EA FREDA 1981-03-02 15:00:00 TS -20.1784 157.708 45 988 bom main 657 637 P_____O_P_P_P_ SH201981 -20.4800 157.270 42 0 -19.5000 158.600 30 45 988 3.00000 -19.9500 158.100 50 985 -20.4822 157.302 2 43 -20.4800 157.270 TC 42 64 64 6 44
1981056S14141 1981 16 SP EA FREDA 1981-03-02 18:00:00 TS -19.9396 157.945 45 988 bom main 638 609 O_____O_P_O_O_ jtwc_sh SH201981 -20.3000 157.500 45 0 -19.2000 158.800 30 45 988 3.00000 -19.5980 158.423 50 985 -20.3000 157.500 2 45 -20.3000 157.500 TC 45 64 64 7 43
1981056S14141 1981 16 SP EA FREDA 1981-03-02 21:00:00 TS -19.6713 158.213 45 988 bom main 609 583 P_____O_P_P_P_ SH201981 -20.0300 157.785 45 0 -19.0000 159.000 30 45 988 3.00000 -19.2719 158.735 50 985 -20.0246 157.762 2 45 -20.0300 157.785 TC 45 64 64 8 42
1981056S14141 1981 16 SP EA FREDA 1981-03-03 00:00:00 TS -19.3790 158.473 45 988 bom main 583 568 O_____O_O_P_O_ jtwc_sh SH201981 -19.7000 158.100 45 0 -18.8000 159.100 30 45 988 3.00000 -19.0000 159.000 50 985 -19.6952 158.063 2 45 -19.7000 158.100 TC 45 64 64 8 42
1981056S14141 1981 16 SP EA FREDA 1981-03-03 03:00:00 TS -19.1121 158.755 45 988 bom main 560 546 P_____O_P_P_P_ SH201981 -19.3500 158.408 45 0 -18.7000 159.400 30 45 988 3.00000 -18.8172 159.175 51 983 -19.3433 158.383 2 45 -19.3500 158.408 TC 45 64 64 7 42
1981056S14141 1981 16 SP EA FREDA 1981-03-03 06:00:00 TS -18.8379 158.980 45 988 bom main 550 537 O_____O_P_O_O_ jtwc_sh SH201981 -19.0000 158.700 45 0 -18.5000 159.500 30 45 988 3.00000 -18.6897 159.302 52 982 -19.0000 158.700 2 45 -19.0000 158.700 TC 45 64 64 7 37
1981056S14141 1981 16 SP EA FREDA 1981-03-03 09:00:00 TS -18.5872 159.175 45 988 bom main 537 527 P_____O_P_P_P_ SH201981 -18.6849 158.950 45 0 -18.3000 159.600 30 45 988 3.00000 -18.5923 159.403 53 981 -18.6738 158.974 2 46 -18.6849 158.950 TC 50 64 64 6 38
1981056S14141 1981 16 SP EA FREDA 1981-03-03 12:00:00 TS -18.3734 159.368 45 988 bom main 527 518 O_____O_O_P_O_ jtwc_sh SH201981 -18.4000 159.200 45 0 -18.2000 159.700 30 45 988 3.00000 -18.5000 159.500 55 980 -18.3672 159.242 2 47 -18.4000 159.200 TC 55 64 64 6 40
1981056S14141 1981 16 SP EA FREDA 1981-03-03 15:00:00 TS -18.1393 159.578 45 988 bom main 523 510 P_____O_P_P_P_ SH201981 -18.1200 159.485 47 0 -18.0000 159.800 30 45 988 3.00000 -18.3545 159.605 55 980 -18.1019 159.515 2 48 -18.1200 159.485 TC 57 64 64 6 44
1981056S14141 1981 16 SP EA FREDA 1981-03-03 18:00:00 TS -17.9425 159.803 45 988 bom main 516 496 O_____O_P_O_O_ jtwc_sh SH201981 -17.9000 159.800 50 0 -17.8000 159.900 30 45 988 3.00000 -18.2123 159.713 55 980 -17.9000 159.800 2 50 -17.9000 159.800 TC 60 64 64 6 55
1981056S14141 1981 16 SP MM FREDA 1981-03-03 21:00:00 TS -17.7975 160.096 main 496 477 P_____O_P_P_P_ SH201981 -17.7625 160.150 50 0 -17.6000 160.200 30 45 988 3.00000 -18.0889 159.839 55 980 -17.7734 160.139 2 51 -17.7625 160.150 TC 62 64 64 6 69
1981056S14141 1981 16 SP MM FREDA 1981-03-04 00:00:00 TS -17.7221 160.417 55 980 wellington main 477 452 O_____O_O_P_O_ jtwc_sh SH201981 -17.7000 160.500 50 0 -17.5000 160.600 30 45 988 3.00000 -18.0000 160.000 55 980 -17.7104 160.487 2 52 -17.7000 160.500 TC 65 975 64 64 6 81
1981056S14141 1981 16 SP MM FREDA 1981-03-04 03:00:00 TS -17.7037 160.742 main 452 429 P_____O_P_P_P_ SH201981 -17.6850 160.830 52 0 -17.5000 161.000 30 50 985 3.50000 -17.9562 160.234 56 978 -17.6921 160.817 2 53 -17.6850 160.830 TC 67 974 69 69 6 89
1981056S14141 1981 16 SP MM FREDA 1981-03-04 06:00:00 TS -17.7096 161.000 main 429 413 O_____O_P_O_O_ jtwc_sh SH201981 -17.7000 161.100 55 0 -17.5000 161.200 30 50 985 3.50000 -17.9479 160.500 57 977 -17.7000 161.100 2 55 -17.7000 161.100 TC 70 974 69 69 4 91
1981056S14141 1981 16 SP MM FREDA 1981-03-04 09:00:00 TS -17.7091 161.203 main 413 398 P_____O_P_P_P_ SH201981 -17.6924 161.273 57 0 -17.5000 161.400 30 50 985 3.50000 -17.9656 160.766 58 976 -17.6950 161.304 2 57 -17.6924 161.273 TC 70 974 69 69 4 95
1981056S14141 1981 16 SP MM FREDA 1981-03-04 12:00:00 TS -17.7424 161.372 60 975 wellington main 398 383 O_____O_O_P_O_ jtwc_sh SH201981 -17.7000 161.400 60 0 -17.6000 161.600 30 50 985 3.50000 -18.0000 161.000 60 975 -17.7121 161.460 2 60 -17.7000 161.400 TC 70 974 69 69 3 105
1981056S14141 1981 16 SP MM FREDA 1981-03-04 15:00:00 TS -17.7937 161.531 main 383 367 P_____O_P_P_P_ SH201981 -17.7425 161.557 62 0 -17.7000 161.800 30 55 980 4.00000 -18.0354 161.153 61 973 -17.7482 161.586 2 62 -17.7425 161.557 TC 70 973 75 75 3 115
1981056S14141 1981 16 SP MM FREDA 1981-03-04 18:00:00 TS -17.8569 161.635 main 367 360 O_____O_P_O_O_ jtwc_sh SH201981 -17.8000 161.700 65 1 -17.8000 161.800 30 60 978 4.00000 -18.0847 161.273 62 972 -17.8000 161.700 4 65 -17.8000 161.700 TC 70 972 84 84 2 121
1981056S14141 1981 16 SP MM FREDA 1981-03-04 21:00:00 TS -17.9150 161.742 main 360 344 P_____O_P_P_P_ SH201981 -17.8425 161.800 65 1 -17.9000 161.900 30 60 978 4.00000 -18.1417 161.381 63 971 -17.8484 161.828 4 65 -17.8425 161.800 TC 77 967 84 84 2 124
1981056S14141 1981 16 SP MM FREDA 1981-03-05 00:00:00 TS -17.9825 161.830 65 970 wellington main 344 322 O_____O_O_P_O_ jtwc_sh SH201981 -17.9000 161.900 65 1 -18.0000 161.900 30 60 976 4.00000 -18.2000 161.500 65 970 -17.9124 161.950 4 65 -17.9000 161.900 TC 85 962 84 84 3 125
1981056S14141 1981 16 SP MM FREDA 1981-03-05 03:00:00 TS -18.0604 161.963 main 322 315 P_____O_P_P_P_ SH201981 -17.9925 162.042 65 1 -18.1000 162.000 40 70 974 4.50000 -18.2215 161.657 67 967 -17.9952 162.072 4 65 -17.9925 162.042 TC 85 962 99 99 3 121
1981056S14141 1981 16 SP MM FREDA 1981-03-05 06:00:00 TS -18.1495 162.126 main 315 292 O_____O_P_O_O_ jtwc_sh SH201981 -18.1000 162.200 65 1 -18.2000 162.200 40 70 974 4.50000 -18.2475 161.828 70 965 -18.1000 162.200 4 65 -18.1000 162.200 TC 85 962 99 99 4 120
1981056S14141 1981 16 SP MM FREDA 1981-03-05 09:00:00 TS -18.2347 162.287 main 292 270 P_____O_P_P_P_ SH201981 -18.1850 162.350 65 1 -18.3000 162.400 40 70 974 4.50000 -18.2997 162.010 72 962 -18.2040 162.327 4 65 -18.1850 162.350 TC 85 962 99 99 4 119
1981056S14141 1981 16 SP MM FREDA 1981-03-05 12:00:00 TS -18.3465 162.493 75 960 wellington main 270 246 O_____O_O_P_O_ jtwc_sh SH201981 -18.3000 162.500 65 1 -18.4000 162.800 40 70 974 4.50000 -18.4000 162.200 75 960 -18.3323 162.463 4 65 -18.3000 162.500 TC 85 962 99 99 4 129
1981056S14141 1981 16 SP MM FREDA 1981-03-05 15:00:00 TS -18.4999 162.633 main 246 216 P_____O_P_P_P_ SH201981 -18.4774 162.635 65 1 -18.5000 162.900 40 70 974 4.50000 -18.5502 162.377 76 958 -18.4945 162.618 4 65 -18.4774 162.635 TC 80 966 99 99 4 140
1981056S14141 1981 16 SP MM FREDA 1981-03-05 18:00:00 TS -18.6905 162.793 main 216 185 O_____O_P_O_O_ jtwc_sh SH201981 -18.7000 162.800 65 1 -18.6000 163.000 40 70 972 4.50000 -18.7523 162.563 77 957 -18.7000 162.800 4 65 -18.7000 162.800 TC 75 970 99 99 6 142
1981056S14141 1981 16 SP MM FREDA 1981-03-05 21:00:00 TS -18.9382 162.993 main 185 146 P_____O_P_P_P_ SH201981 -18.9275 163.035 67 1 -18.9000 163.100 40 80 964 5.00000 -19.0032 162.768 78 956 -18.9326 163.025 4 67 -18.9275 163.035 TC 72 972 110 110 7 142
1981056S14141 1981 16 SP MM FREDA 1981-03-06 00:00:00 TS -19.2020 163.216 80 955 wellington main 146 100 O_____O_O_P_O_ jtwc_sh SH201981 -19.2000 163.300 70 1 -19.1000 163.200 40 80 962 5.00000 -19.3000 163.000 80 955 -19.2102 163.278 4 70 -19.2000 163.300 TC 70 975 110 110 8 143
1981056S14141 1981 16 SP MM FREDA 1981-03-06 03:00:00 TS -19.5372 163.465 main 100 53 P_____O_P_P_P_ SH201981 -19.5350 163.557 72 1 -19.5000 163.400 40 80 962 5.00000 4 -19.5832 163.268 78 956 -19.5326 163.541 4 72 -19.5350 163.557 TC 70 110 110 8 146
1981056S14141 1981 16 SP MM FREDA 1981-03-06 06:00:00 TS -19.8830 163.713 main 53 15 O_____O_P_O_O_ jtwc_sh SH201981 -19.9000 163.800 75 1 -19.8000 163.600 40 80 962 5.00000 -19.9151 163.564 77 957 -19.9000 163.800 4 75 -19.9000 163.800 TC 70 110 110 8 147
1981056S14141 1981 16 SP MM FREDA 1981-03-06 09:00:00 TS -20.2368 163.942 main 15 0 P_____O_P_P_P_ SH201981 -20.2199 164.000 72 1 -20.2000 163.800 40 80 962 5.00000 -20.3144 163.878 76 958 -20.2297 164.029 4 72 -20.2199 164.000 TC 65 110 110 9 150
1981056S14141 1981 16 SP MM FREDA 1981-03-06 12:00:00 TS -20.6425 164.190 75 960 wellington main 10 10 O_____O_O_P_O_ jtwc_sh SH201981 -20.6000 164.200 70 1 -20.6000 164.100 40 80 962 5.00000 -20.8000 164.200 75 960 -20.6126 164.252 4 70 -20.6000 164.200 TC 60 110 110 10 154
1981056S14141 1981 16 SP MM FREDA 1981-03-06 15:00:00 TS -21.1720 164.434 main 33 23 P_____O_P_P_P_ SH201981 -21.0675 164.443 67 1 -21.3000 164.300 40 80 966 5.00000 -21.3360 164.511 72 962 -21.0891 164.474 4 67 -21.0675 164.443 TC 57 110 110 13 158
1981056S14141 1981 16 SP MM FREDA 1981-03-06 18:00:00 TS -21.8342 164.696 main 49 49 O_____O_P_O_O_ jtwc_sh SH201981 -21.7000 164.700 65 1 -22.2000 164.500 40 70 970 4.50000 -21.9627 164.830 70 965 -21.7000 164.700 4 65 -21.7000 164.700 TC 55 99 99 15 160
1981056S14141 1981 16 SP MM FREDA 1981-03-06 21:00:00 TS -22.6142 164.989 main 113 113 P_____O_P_P_P_ SH201981 -22.5400 164.950 65 1 -23.0000 164.900 40 70 970 4.50000 -22.6829 165.159 67 967 -22.5007 164.942 4 63 -22.5400 164.950 TC 57 99 99 18 163
1981056S14141 1981 16 SP MM FREDA 1981-03-07 00:00:00 TS -23.5130 165.263 65 970 wellington main 175 175 O_____O_O_P_O_ jtwc_sh SH201981 -23.5000 165.200 65 1 -24.0000 165.100 40 65 975 4.50000 -23.5000 165.500 65 970 -23.4303 165.192 4 62 -23.5000 165.200 TC 60 89 89 19 164
1981056S14141 1981 16 SP MM FREDA 1981-03-07 03:00:00 TS -24.4456 165.566 main 248 248 P_______P_P_P_ SH201981 -24.4574 165.450 62 0 -24.4478 165.917 63 971 -24.4197 165.446 4 61 -24.4574 165.450 TC 60 20 164
1981056S14141 1981 16 SP MM FREDA 1981-03-07 06:00:00 TS -25.4196 165.860 main 344 344 O_______P_O_O_ jtwc_sh SH201981 -25.4000 165.700 60 0 -25.4785 166.341 62 972 -25.4000 165.700 2 60 -25.4000 165.700 TC 60 20 165
1981056S14141 1981 16 SP MM FREDA 1981-03-07 09:00:00 TS -26.3384 166.144 main 440 440 P_______P_P_P_ SH201981 -26.2649 165.950 57 0 -26.5199 166.720 61 973 -26.3037 165.955 2 56 -26.2649 165.950 TC 57 19 165
1981056S14141 1981 16 SP MM FREDA 1981-03-07 12:00:00 TS -27.2205 166.402 60 975 wellington main 537 537 O_______O_P_O_ jtwc_sh SH201981 -27.1000 166.200 55 0 -27.5000 167.000 60 975 -27.1821 166.208 2 52 -27.1000 166.200 TC 55 18 167
1981056S14141 1981 16 SP MM FREDA 1981-03-07 15:00:00 TS -28.0774 166.610 main 636 636 P_______P_P_P_ SH201981 -27.9724 166.450 50 0 -28.3452 167.081 58 976 -28.0194 166.458 2 48 -27.9724 166.450 TC 50 17 168
1981056S14141 1981 16 SP MM FREDA 1981-03-07 18:00:00 TS -28.8797 166.790 main 726 726 O_______P_O_O_ jtwc_sh SH201981 -28.8000 166.700 45 0 -29.1187 167.060 57 977 -28.8000 166.700 2 45 -28.8000 166.700 TC 45 16 169
1981056S14141 1981 16 SP MM FREDA 1981-03-07 21:00:00 TS -29.6054 166.964 main 758 704 P_______P_P_P_ SH201981 -29.5375 166.958 42 0 -29.8329 167.009 56 978 -29.5136 166.933 2 41 -29.5375 166.958 TC 42 14 168
1981056S14141 1981 16 SP MM FREDA 1981-03-08 00:00:00 TS -30.2860 167.129 55 980 wellington main 696 637 O_______O_P_O_ jtwc_sh SH201981 -30.2000 167.200 40 0 -30.5000 167.000 55 980 -30.1727 167.158 2 37 -30.2000 167.200 TC 40 14 169
1981056S14141 1981 16 SP MM FREDA 1981-03-08 03:00:00 TS -30.9460 167.278 main 637 581 P_______P_P_P_ SH201981 -30.8125 167.410 35 0 -31.1546 167.095 53 981 -30.7956 167.380 2 33 -30.8125 167.410 TC 35 13 170
1981056S14141 1981 16 SP MM FREDA 1981-03-08 06:00:00 TS -31.6093 167.401 main 581 532 O_______P_O_O_ jtwc_sh SH201981 -31.4000 167.600 30 -1 -31.7663 167.252 52 982 -31.4000 167.600 1 30 -31.4000 167.600 TC 30 14 173
1981056S14141 1981 16 SP MM FREDA 1981-03-08 09:00:00 NR -32.3449 167.483 main 532 477 ________P_____ SH201981 -1 -32.3449 167.483 51 983 1 TC 13 165
1981056S14141 1981 16 SP MM FREDA 1981-03-08 12:00:00 NR -32.9000 167.800 50 985 wellington main 477 423 ________O_____ -1 -32.9000 167.800 50 985 1 13 151
1981056S14141 1981 16 SP MM FREDA 1981-03-08 15:00:00 NR -33.4398 168.209 main 423 364 ________P_____ -1 -33.4398 168.209 47 986 1 13 145
1981056S14141 1981 16 SP MM FREDA 1981-03-08 18:00:00 NR -33.9679 168.693 main 362 310 ________P_____ -1 -33.9679 168.693 45 987 13 141
1981056S14141 1981 16 SP MM FREDA 1981-03-08 21:00:00 NR -34.4870 169.232 main 310 261 ________P_____ -1 -34.4870 169.232 42 988 14 139
1981056S14141 1981 16 SP MM FREDA 1981-03-09 00:00:00 NR -35.0000 169.800 40 990 wellington main 261 ________O_____ -1 -35.0000 169.800 40 990 14 138

デジタル台風データ・検索

IBTrACS Databaseについて

本データベースは、米国NOAAが公開する1842年以降の世界の熱帯低気圧のベストトラックデータアーカイブInternational Best Track Archive for Climate Stewardship (IBTrACS)を、ウェブで閲覧しやすい形式に変換したものです。

最終更新日:2021-11-26